Airfield :







YOU CAN JOIN US ON...

 
LOGIN :

Register | Disclaimer

   EN    FR    IT 

 









Legend :    VFR   Marginal VFR   IFR   Intensive IFR   Very Intensive IFR
Visi :
Ceiling :
>= 8 km
>= 3000ft
5 to 8 km
1000 to 3000 ft
1500m to 5 km
500 to 1000 ft
800 to 1500m
200 to 500 ft
< 800m
< 200 ft
Symbols :   Thunderstorms  Fog  Heavy snow  Heavy precipitations  Wind > 20 kt






- Airport Elevation : 56 ft


KRKD - Knox County Regional

CURRENT METAR :
  • 192156Z AUTO 24011KT 10SM FEW065 24/16 A3002 RMK AO2 SLP167 T02390156 PNO $

EXPIRED METARs :
  • 192056Z AUTO 24009KT 10SM FEW070 26/16 A3002 RMK AO2 SLP164 6//// T02560161 56002 PNO $
  • 191956Z AUTO 18007KT 10SM BKN055 BKN070 26/17 A3002 RMK AO2 SLP164 T02560167 PNO $
  • 191856Z AUTO 17008KT 10SM OVC060 25/17 A3002 RMK AO2 SLP165 T02500172 PNO $
  • 191756Z AUTO 18007KT 10SM FEW050 24/16 A3002 RMK AO2 SLP166 6//// T02440161 10250 20189 58002 PNO $

TAF KRKD
Valid from the 19 at 18:00 until the 20 at 18:00 UTC


191727Z 1918/2018 20010KT P6SM FEW050
FM200000 VRB04KT P6SM SKC
FM201400 21006KT P6SM FEW050 FEW250
KZBW FIR / North America



MET'MAP, your aeronautical weather chart ! - Copyright ORBIFLY December 2007 - Disclaimer

ORBIFLY MET'MAP TEAM :

Programming & Development : Alexandra Zaïnal
Original concept : Baudouin d'Aumeries
Technical & hardware support : Manuel Goepfert
Assistance : Marc-Olivier Méhu




SOURCES & CREDITS :

   NOAA